sensor_id;sensor_type;location;lat;lon;timestamp;noise_LAeq;noise_LA_min;noise_LA_max;noise_LA01;noise_LA95
69616;Laerm;56822;52.516;4.708;2022-12-18T00:00:07;53.07;45.91;57.69;;
69616;Laerm;56822;52.516;4.708;2022-12-18T00:00:18;51.26;44.39;56.68;;
69616;Laerm;56822;52.516;4.708;2022-12-18T00:00:28;44.23;40.47;48.26;;
69616;Laerm;56822;52.516;4.708;2022-12-18T00:00:39;43.78;40.70;48.27;;
69616;Laerm;56822;52.516;4.708;2022-12-18T00:00:50;43.79;39.95;49.51;;
69616;Laerm;56822;52.516;4.708;2022-12-18T00:01:01;47.70;43.87;51.48;;
69616;Laerm;56822;52.516;4.708;2022-12-18T00:01:20;48.22;44.48;56.07;;
69616;Laerm;56822;52.516;4.708;2022-12-18T00:01:31;47.01;43.07;53.55;;
69616;Laerm;56822;52.516;4.708;2022-12-18T00:01:42;47.92;44.59;50.82;;
69616;Laerm;56822;52.516;4.708;2022-12-18T00:01:53;46.06;43.41;50.69;;
69616;Laerm;56822;52.516;4.708;2022-12-18T00:02:03;44.47;39.72;49.31;;
69616;Laerm;56822;52.516;4.708;2022-12-18T00:02:14;42.69;39.81;47.35;;
69616;Laerm;56822;52.516;4.708;2022-12-18T00:02:24;46.15;41.38;49.96;;
69616;Laerm;56822;52.516;4.708;2022-12-18T00:02:34;46.83;43.75;51.84;;
69616;Laerm;56822;52.516;4.708;2022-12-18T00:02:44;48.70;45.41;52.62;;
69616;Laerm;56822;52.516;4.708;2022-12-18T00:02:55;49.70;46.45;53.28;;
69616;Laerm;56822;52.516;4.708;2022-12-18T00:03:05;48.18;44.94;52.08;;
69616;Laerm;56822;52.516;4.708;2022-12-18T00:03:15;47.44;45.31;50.24;;
69616;Laerm;56822;52.516;4.708;2022-12-18T00:03:26;48.03;44.11;51.22;;
69616;Laerm;56822;52.516;4.708;2022-12-18T00:03:36;48.13;44.64;52.53;;
69616;Laerm;56822;52.516;4.708;2022-12-18T00:03:46;44.51;42.16;47.53;;
69616;Laerm;56822;52.516;4.708;2022-12-18T00:03:57;45.23;42.62;49.48;;
69616;Laerm;56822;52.516;4.708;2022-12-18T00:04:12;50.03;44.22;60.44;;
69616;Laerm;56822;52.516;4.708;2022-12-18T00:04:25;46.77;42.78;52.66;;
69616;Laerm;56822;52.516;4.708;2022-12-18T00:04:36;47.93;43.01;51.92;;
69616;Laerm;56822;52.516;4.708;2022-12-18T00:04:46;46.06;42.40;50.67;;
69616;Laerm;56822;52.516;4.708;2022-12-18T00:04:56;46.35;42.47;50.63;;
69616;Laerm;56822;52.516;4.708;2022-12-18T00:05:07;47.19;44.44;50.35;;
69616;Laerm;56822;52.516;4.708;2022-12-18T00:05:17;48.50;45.12;52.97;;
69616;Laerm;56822;52.516;4.708;2022-12-18T00:05:27;47.06;42.55;58.43;;
69616;Laerm;56822;52.516;4.708;2022-12-18T00:05:45;44.72;42.55;48.46;;
69616;Laerm;56822;52.516;4.708;2022-12-18T00:05:55;48.08;42.95;56.99;;
69616;Laerm;56822;52.516;4.708;2022-12-18T00:06:05;47.16;44.35;50.90;;
69616;Laerm;56822;52.516;4.708;2022-12-18T00:06:16;47.56;44.68;51.01;;
69616;Laerm;56822;52.516;4.708;2022-12-18T00:06:28;46.35;43.57;50.41;;
69616;Laerm;56822;52.516;4.708;2022-12-18T00:06:38;47.75;42.41;52.57;;
69616;Laerm;56822;52.516;4.708;2022-12-18T00:06:49;47.02;43.71;52.56;;
69616;Laerm;56822;52.516;4.708;2022-12-18T00:06:59;46.09;43.62;48.91;;
69616;Laerm;56822;52.516;4.708;2022-12-18T00:07:09;46.83;42.89;50.18;;
69616;Laerm;56822;52.516;4.708;2022-12-18T00:07:20;47.99;44.55;55.08;;
69616;Laerm;56822;52.516;4.708;2022-12-18T00:07:30;49.84;47.11;53.18;;
69616;Laerm;56822;52.516;4.708;2022-12-18T00:07:40;49.66;45.75;57.78;;
69616;Laerm;56822;52.516;4.708;2022-12-18T00:07:50;48.36;45.34;53.04;;
69616;Laerm;56822;52.516;4.708;2022-12-18T00:08:01;47.91;43.56;58.94;;
69616;Laerm;56822;52.516;4.708;2022-12-18T00:08:11;48.56;44.75;54.01;;
69616;Laerm;56822;52.516;4.708;2022-12-18T00:08:21;49.18;44.03;55.90;;
69616;Laerm;56822;52.516;4.708;2022-12-18T00:08:31;52.46;48.36;55.25;;
69616;Laerm;56822;52.516;4.708;2022-12-18T00:08:43;47.73;43.49;52.81;;
69616;Laerm;56822;52.516;4.708;2022-12-18T00:08:54;46.18;43.38;49.26;;
69616;Laerm;56822;52.516;4.708;2022-12-18T00:09:05;45.20;41.27;50.55;;
69616;Laerm;56822;52.516;4.708;2022-12-18T00:09:15;45.61;43.14;48.84;;
69616;Laerm;56822;52.516;4.708;2022-12-18T00:09:26;47.03;44.19;50.07;;
69616;Laerm;56822;52.516;4.708;2022-12-18T00:09:36;46.24;42.49;49.98;;
69616;Laerm;56822;52.516;4.708;2022-12-18T00:09:46;46.85;42.89;50.66;;
69616;Laerm;56822;52.516;4.708;2022-12-18T00:09:57;49.53;44.96;53.71;;
69616;Laerm;56822;52.516;4.708;2022-12-18T00:10:07;48.53;45.03;52.30;;
69616;Laerm;56822;52.516;4.708;2022-12-18T00:10:17;49.54;45.09;53.61;;
69616;Laerm;56822;52.516;4.708;2022-12-18T00:10:28;49.27;45.44;53.14;;
69616;Laerm;56822;52.516;4.708;2022-12-18T00:10:38;46.71;43.36;49.66;;
69616;Laerm;56822;52.516;4.708;2022-12-18T00:10:49;45.59;42.37;50.64;;
69616;Laerm;56822;52.516;4.708;2022-12-18T00:11:05;47.21;43.22;56.87;;
69616;Laerm;56822;52.516;4.708;2022-12-18T00:11:18;47.98;43.23;52.58;;
69616;Laerm;56822;52.516;4.708;2022-12-18T00:11:29;47.68;44.69;51.23;;
69616;Laerm;56822;52.516;4.708;2022-12-18T00:11:40;48.30;44.61;52.39;;
69616;Laerm;56822;52.516;4.708;2022-12-18T00:11:50;49.30;46.32;52.65;;
69616;Laerm;56822;52.516;4.708;2022-12-18T00:12:00;48.07;45.04;50.80;;
69616;Laerm;56822;52.516;4.708;2022-12-18T00:12:11;46.24;42.98;49.74;;
69616;Laerm;56822;52.516;4.708;2022-12-18T00:12:21;47.67;42.51;59.70;;
69616;Laerm;56822;52.516;4.708;2022-12-18T00:12:31;47.44;42.98;52.19;;
69616;Laerm;56822;52.516;4.708;2022-12-18T00:12:41;48.82;43.95;58.66;;
69616;Laerm;56822;52.516;4.708;2022-12-18T00:12:52;47.91;44.34;53.31;;
69616;Laerm;56822;52.516;4.708;2022-12-18T00:13:02;46.69;42.22;51.38;;
69616;Laerm;56822;52.516;4.708;2022-12-18T00:13:12;45.58;42.18;48.38;;
69616;Laerm;56822;52.516;4.708;2022-12-18T00:13:22;47.29;43.87;53.31;;
69616;Laerm;56822;52.516;4.708;2022-12-18T00:13:33;45.29;42.02;48.31;;
69616;Laerm;56822;52.516;4.708;2022-12-18T00:13:44;47.03;44.14;50.62;;
69616;Laerm;56822;52.516;4.708;2022-12-18T00:13:55;47.40;43.46;51.08;;
69616;Laerm;56822;52.516;4.708;2022-12-18T00:14:06;45.92;42.17;53.41;;
69616;Laerm;56822;52.516;4.708;2022-12-18T00:14:16;49.52;44.29;58.44;;
69616;Laerm;56822;52.516;4.708;2022-12-18T00:14:26;47.13;43.73;52.69;;
69616;Laerm;56822;52.516;4.708;2022-12-18T00:14:36;47.57;44.15;51.76;;
69616;Laerm;56822;52.516;4.708;2022-12-18T00:14:47;46.47;43.06;49.93;;
69616;Laerm;56822;52.516;4.708;2022-12-18T00:14:57;46.02;41.98;54.02;;
69616;Laerm;56822;52.516;4.708;2022-12-18T00:15:07;46.18;41.36;53.03;;
69616;Laerm;56822;52.516;4.708;2022-12-18T00:15:18;45.57;41.96;48.95;;
69616;Laerm;56822;52.516;4.708;2022-12-18T00:15:28;46.83;43.97;49.61;;
69616;Laerm;56822;52.516;4.708;2022-12-18T00:15:38;47.62;43.80;54.93;;
69616;Laerm;56822;52.516;4.708;2022-12-18T00:15:49;46.44;43.29;53.13;;
69616;Laerm;56822;52.516;4.708;2022-12-18T00:16:03;45.95;43.09;49.24;;
69616;Laerm;56822;52.516;4.708;2022-12-18T00:16:14;46.13;42.52;50.37;;
69616;Laerm;56822;52.516;4.708;2022-12-18T00:16:25;47.05;43.33;53.03;;
69616;Laerm;56822;52.516;4.708;2022-12-18T00:16:36;46.12;42.25;49.76;;
69616;Laerm;56822;52.516;4.708;2022-12-18T00:16:47;47.91;44.86;53.44;;
69616;Laerm;56822;52.516;4.708;2022-12-18T00:16:57;48.07;45.35;52.17;;
69616;Laerm;56822;52.516;4.708;2022-12-18T00:17:10;46.67;42.29;50.38;;
69616;Laerm;56822;52.516;4.708;2022-12-18T00:17:20;44.13;40.99;47.76;;
69616;Laerm;56822;52.516;4.708;2022-12-18T00:17:31;46.81;43.56;51.21;;
69616;Laerm;56822;52.516;4.708;2022-12-18T00:17:41;49.25;44.88;56.28;;
69616;Laerm;56822;52.516;4.708;2022-12-18T00:17:51;47.04;43.76;50.79;;
69616;Laerm;56822;52.516;4.708;2022-12-18T00:18:02;48.01;43.45;51.54;;
69616;Laerm;56822;52.516;4.708;2022-12-18T00:18:12;47.31;44.28;53.30;;
69616;Laerm;56822;52.516;4.708;2022-12-18T00:18:22;46.71;42.93;51.81;;
69616;Laerm;56822;52.516;4.708;2022-12-18T00:18:33;46.12;42.69;52.57;;
69616;Laerm;56822;52.516;4.708;2022-12-18T00:18:43;46.39;41.77;52.62;;
69616;Laerm;56822;52.516;4.708;2022-12-18T00:18:54;49.23;45.16;57.04;;
69616;Laerm;56822;52.516;4.708;2022-12-18T00:19:05;50.99;46.23;56.75;;
69616;Laerm;56822;52.516;4.708;2022-12-18T00:19:15;48.93;45.44;56.84;;
69616;Laerm;56822;52.516;4.708;2022-12-18T00:19:26;47.61;44.47;50.97;;
69616;Laerm;56822;52.516;4.708;2022-12-18T00:19:36;46.51;42.95;51.21;;
69616;Laerm;56822;52.516;4.708;2022-12-18T00:19:46;46.87;42.14;54.64;;
69616;Laerm;56822;52.516;4.708;2022-12-18T00:19:57;46.70;43.13;53.12;;
69616;Laerm;56822;52.516;4.708;2022-12-18T00:20:07;48.70;44.06;52.78;;
69616;Laerm;56822;52.516;4.708;2022-12-18T00:20:17;51.59;44.03;66.68;;
69616;Laerm;56822;52.516;4.708;2022-12-18T00:20:36;49.09;43.58;56.46;;
69616;Laerm;56822;52.516;4.708;2022-12-18T00:20:46;46.44;40.96;53.29;;
69616;Laerm;56822;52.516;4.708;2022-12-18T00:21:00;47.08;41.59;52.16;;
69616;Laerm;56822;52.516;4.708;2022-12-18T00:21:11;47.38;42.59;53.10;;
69616;Laerm;56822;52.516;4.708;2022-12-18T00:21:22;45.17;41.22;49.28;;
69616;Laerm;56822;52.516;4.708;2022-12-18T00:21:32;44.84;41.50;49.49;;
69616;Laerm;56822;52.516;4.708;2022-12-18T00:21:43;45.33;41.97;51.36;;
69616;Laerm;56822;52.516;4.708;2022-12-18T00:21:53;44.75;41.19;50.82;;
69616;Laerm;56822;52.516;4.708;2022-12-18T00:22:04;48.27;42.38;55.86;;
69616;Laerm;56822;52.516;4.708;2022-12-18T00:22:16;48.80;43.62;58.79;;
69616;Laerm;56822;52.516;4.708;2022-12-18T00:22:26;45.73;42.81;50.75;;
69616;Laerm;56822;52.516;4.708;2022-12-18T00:22:36;44.35;41.72;46.96;;
69616;Laerm;56822;52.516;4.708;2022-12-18T00:22:46;45.15;41.65;49.35;;
69616;Laerm;56822;52.516;4.708;2022-12-18T00:22:57;44.89;41.78;50.78;;
69616;Laerm;56822;52.516;4.708;2022-12-18T00:23:07;47.51;42.88;53.63;;
69616;Laerm;56822;52.516;4.708;2022-12-18T00:23:17;46.85;41.76;52.43;;
69616;Laerm;56822;52.516;4.708;2022-12-18T00:23:28;49.41;46.18;54.34;;
69616;Laerm;56822;52.516;4.708;2022-12-18T00:23:39;46.83;43.07;50.67;;
69616;Laerm;56822;52.516;4.708;2022-12-18T00:23:49;45.11;42.11;48.31;;
69616;Laerm;56822;52.516;4.708;2022-12-18T00:24:00;49.31;45.87;55.93;;
69616;Laerm;56822;52.516;4.708;2022-12-18T00:24:10;48.27;44.87;55.55;;
69616;Laerm;56822;52.516;4.708;2022-12-18T00:24:21;47.61;44.05;52.26;;
69616;Laerm;56822;52.516;4.708;2022-12-18T00:24:31;47.19;43.11;52.09;;
69616;Laerm;56822;52.516;4.708;2022-12-18T00:24:41;48.04;44.16;53.29;;
69616;Laerm;56822;52.516;4.708;2022-12-18T00:24:51;47.85;44.43;54.18;;
69616;Laerm;56822;52.516;4.708;2022-12-18T00:25:02;48.16;43.71;56.24;;
69616;Laerm;56822;52.516;4.708;2022-12-18T00:25:12;48.16;44.28;57.08;;
69616;Laerm;56822;52.516;4.708;2022-12-18T00:25:23;48.63;44.22;52.36;;
69616;Laerm;56822;52.516;4.708;2022-12-18T00:25:34;47.06;42.61;53.38;;
69616;Laerm;56822;52.516;4.708;2022-12-18T00:25:44;46.60;43.09;54.88;;
69616;Laerm;56822;52.516;4.708;2022-12-18T00:25:58;46.12;41.78;49.72;;
69616;Laerm;56822;52.516;4.708;2022-12-18T00:26:15;42.70;38.83;48.21;;
69616;Laerm;56822;52.516;4.708;2022-12-18T00:26:30;49.40;39.61;70.25;;
69616;Laerm;56822;52.516;4.708;2022-12-18T00:26:41;45.34;40.72;50.40;;
69616;Laerm;56822;52.516;4.708;2022-12-18T00:26:51;43.66;38.90;51.99;;
69616;Laerm;56822;52.516;4.708;2022-12-18T00:27:02;44.62;40.36;52.55;;
69616;Laerm;56822;52.516;4.708;2022-12-18T00:27:12;43.67;39.89;47.67;;
69616;Laerm;56822;52.516;4.708;2022-12-18T00:27:22;45.99;42.31;51.68;;
69616;Laerm;56822;52.516;4.708;2022-12-18T00:27:32;43.82;39.95;50.44;;
69616;Laerm;56822;52.516;4.708;2022-12-18T00:27:43;43.68;39.83;48.97;;
69616;Laerm;56822;52.516;4.708;2022-12-18T00:27:53;44.76;41.85;47.75;;
69616;Laerm;56822;52.516;4.708;2022-12-18T00:28:03;45.38;42.59;49.54;;
69616;Laerm;56822;52.516;4.708;2022-12-18T00:28:14;45.59;42.32;49.95;;
69616;Laerm;56822;52.516;4.708;2022-12-18T00:28:24;45.36;42.69;48.61;;
69616;Laerm;56822;52.516;4.708;2022-12-18T00:28:34;47.11;43.81;50.10;;
69616;Laerm;56822;52.516;4.708;2022-12-18T00:28:45;45.15;41.35;49.50;;
69616;Laerm;56822;52.516;4.708;2022-12-18T00:28:57;45.73;42.01;49.59;;
69616;Laerm;56822;52.516;4.708;2022-12-18T00:29:12;44.41;40.97;48.57;;
69616;Laerm;56822;52.516;4.708;2022-12-18T00:29:26;45.17;41.78;50.12;;
69616;Laerm;56822;52.516;4.708;2022-12-18T00:29:36;45.37;41.21;50.95;;
69616;Laerm;56822;52.516;4.708;2022-12-18T00:29:47;46.19;42.17;53.30;;
69616;Laerm;56822;52.516;4.708;2022-12-18T00:29:58;44.74;42.39;48.17;;
69616;Laerm;56822;52.516;4.708;2022-12-18T00:30:08;47.79;41.84;52.52;;
69616;Laerm;56822;52.516;4.708;2022-12-18T00:30:19;51.46;48.23;54.54;;
69616;Laerm;56822;52.516;4.708;2022-12-18T00:30:29;54.39;49.23;58.43;;
69616;Laerm;56822;52.516;4.708;2022-12-18T00:30:39;53.07;48.85;57.02;;
69616;Laerm;56822;52.516;4.708;2022-12-18T00:30:50;48.98;45.13;54.24;;
69616;Laerm;56822;52.516;4.708;2022-12-18T00:31:02;47.91;45.48;51.80;;
69616;Laerm;56822;52.516;4.708;2022-12-18T00:31:14;46.94;44.60;49.34;;
69616;Laerm;56822;52.516;4.708;2022-12-18T00:31:25;46.37;43.02;51.45;;
69616;Laerm;56822;52.516;4.708;2022-12-18T00:31:37;44.59;42.17;47.81;;
69616;Laerm;56822;52.516;4.708;2022-12-18T00:31:47;45.63;42.94;48.70;;
69616;Laerm;56822;52.516;4.708;2022-12-18T00:31:57;44.59;40.54;49.71;;
69616;Laerm;56822;52.516;4.708;2022-12-18T00:32:07;44.56;41.38;48.55;;
69616;Laerm;56822;52.516;4.708;2022-12-18T00:32:18;44.90;42.34;48.08;;
69616;Laerm;56822;52.516;4.708;2022-12-18T00:32:28;44.75;41.89;47.88;;
69616;Laerm;56822;52.516;4.708;2022-12-18T00:32:38;44.04;41.08;46.80;;
69616;Laerm;56822;52.516;4.708;2022-12-18T00:32:49;43.01;39.14;47.39;;
69616;Laerm;56822;52.516;4.708;2022-12-18T00:32:59;43.06;40.30;45.56;;
69616;Laerm;56822;52.516;4.708;2022-12-18T00:33:09;43.64;41.05;46.55;;
69616;Laerm;56822;52.516;4.708;2022-12-18T00:33:20;47.09;43.15;56.49;;
69616;Laerm;56822;52.516;4.708;2022-12-18T00:33:30;47.34;44.43;50.23;;
69616;Laerm;56822;52.516;4.708;2022-12-18T00:33:40;46.64;42.50;59.09;;
69616;Laerm;56822;52.516;4.708;2022-12-18T00:33:51;47.30;43.25;58.93;;
69616;Laerm;56822;52.516;4.708;2022-12-18T00:34:03;45.43;41.66;50.51;;
69616;Laerm;56822;52.516;4.708;2022-12-18T00:34:13;47.63;43.88;51.46;;
69616;Laerm;56822;52.516;4.708;2022-12-18T00:34:24;46.51;43.36;49.19;;
69616;Laerm;56822;52.516;4.708;2022-12-18T00:34:34;47.06;43.83;55.13;;
69616;Laerm;56822;52.516;4.708;2022-12-18T00:34:44;46.98;42.62;51.90;;
69616;Laerm;56822;52.516;4.708;2022-12-18T00:34:54;45.06;41.30;47.73;;
69616;Laerm;56822;52.516;4.708;2022-12-18T00:35:05;45.56;42.12;51.05;;
69616;Laerm;56822;52.516;4.708;2022-12-18T00:35:16;46.79;41.47;53.36;;
69616;Laerm;56822;52.516;4.708;2022-12-18T00:35:26;42.32;39.06;45.26;;
69616;Laerm;56822;52.516;4.708;2022-12-18T00:35:37;43.15;39.90;47.35;;
69616;Laerm;56822;52.516;4.708;2022-12-18T00:35:47;45.71;42.32;51.44;;
69616;Laerm;56822;52.516;4.708;2022-12-18T00:36:04;45.83;42.14;49.92;;
69616;Laerm;56822;52.516;4.708;2022-12-18T00:36:15;45.07;41.04;49.47;;
69616;Laerm;56822;52.516;4.708;2022-12-18T00:36:28;46.34;43.25;49.59;;
69616;Laerm;56822;52.516;4.708;2022-12-18T00:36:39;44.75;42.06;48.30;;
69616;Laerm;56822;52.516;4.708;2022-12-18T00:36:49;44.94;42.03;48.54;;
69616;Laerm;56822;52.516;4.708;2022-12-18T00:36:59;44.70;41.29;51.03;;
69616;Laerm;56822;52.516;4.708;2022-12-18T00:37:10;41.95;39.30;44.63;;
69616;Laerm;56822;52.516;4.708;2022-12-18T00:37:20;45.08;40.59;50.56;;
69616;Laerm;56822;52.516;4.708;2022-12-18T00:37:30;45.53;41.63;52.38;;
69616;Laerm;56822;52.516;4.708;2022-12-18T00:37:40;44.53;41.96;48.03;;
69616;Laerm;56822;52.516;4.708;2022-12-18T00:37:51;43.87;41.17;47.98;;
69616;Laerm;56822;52.516;4.708;2022-12-18T00:38:01;46.29;43.04;50.21;;
69616;Laerm;56822;52.516;4.708;2022-12-18T00:38:11;47.74;44.54;52.92;;
69616;Laerm;56822;52.516;4.708;2022-12-18T00:38:22;47.34;43.88;50.75;;
69616;Laerm;56822;52.516;4.708;2022-12-18T00:38:32;47.95;44.72;51.61;;
69616;Laerm;56822;52.516;4.708;2022-12-18T00:38:43;46.67;42.95;56.23;;
69616;Laerm;56822;52.516;4.708;2022-12-18T00:38:54;47.64;42.81;51.92;;
69616;Laerm;56822;52.516;4.708;2022-12-18T00:39:05;46.43;43.22;51.00;;
69616;Laerm;56822;52.516;4.708;2022-12-18T00:39:15;46.26;42.41;51.91;;
69616;Laerm;56822;52.516;4.708;2022-12-18T00:39:25;45.40;41.20;50.46;;
69616;Laerm;56822;52.516;4.708;2022-12-18T00:39:36;44.96;42.05;51.96;;
69616;Laerm;56822;52.516;4.708;2022-12-18T00:39:47;46.05;41.83;50.78;;
69616;Laerm;56822;52.516;4.708;2022-12-18T00:39:58;44.79;41.27;54.93;;
69616;Laerm;56822;52.516;4.708;2022-12-18T00:40:08;43.92;39.73;48.84;;
69616;Laerm;56822;52.516;4.708;2022-12-18T00:40:19;44.76;40.66;51.96;;
69616;Laerm;56822;52.516;4.708;2022-12-18T00:40:29;45.12;41.43;50.04;;
69616;Laerm;56822;52.516;4.708;2022-12-18T00:40:39;44.02;40.48;47.88;;
69616;Laerm;56822;52.516;4.708;2022-12-18T00:40:50;48.43;43.75;55.54;;
69616;Laerm;56822;52.516;4.708;2022-12-18T00:41:00;44.71;40.07;50.90;;
69616;Laerm;56822;52.516;4.708;2022-12-18T00:41:11;42.42;39.52;51.44;;
69616;Laerm;56822;52.516;4.708;2022-12-18T00:41:22;43.35;40.56;46.79;;
69616;Laerm;56822;52.516;4.708;2022-12-18T00:41:51;45.41;40.94;59.31;;
69616;Laerm;56822;52.516;4.708;2022-12-18T00:42:20;44.70;41.06;50.48;;
69616;Laerm;56822;52.516;4.708;2022-12-18T00:42:49;45.33;40.47;49.64;;
69616;Laerm;56822;52.516;4.708;2022-12-18T00:43:05;41.97;38.43;45.33;;
69616;Laerm;56822;52.516;4.708;2022-12-18T00:43:16;44.39;41.17;49.08;;
69616;Laerm;56822;52.516;4.708;2022-12-18T00:43:26;43.83;41.03;47.96;;
69616;Laerm;56822;52.516;4.708;2022-12-18T00:43:37;46.05;39.92;61.44;;
69616;Laerm;56822;52.516;4.708;2022-12-18T00:43:47;41.36;38.48;46.63;;
69616;Laerm;56822;52.516;4.708;2022-12-18T00:43:57;41.56;39.25;44.92;;
69616;Laerm;56822;52.516;4.708;2022-12-18T00:44:09;46.07;40.31;53.39;;
69616;Laerm;56822;52.516;4.708;2022-12-18T00:44:20;46.28;42.97;51.11;;
69616;Laerm;56822;52.516;4.708;2022-12-18T00:44:30;45.97;41.68;51.91;;
69616;Laerm;56822;52.516;4.708;2022-12-18T00:44:40;45.65;41.60;59.44;;
69616;Laerm;56822;52.516;4.708;2022-12-18T00:44:50;45.85;42.41;49.73;;
69616;Laerm;56822;52.516;4.708;2022-12-18T00:45:01;48.35;45.17;54.37;;
69616;Laerm;56822;52.516;4.708;2022-12-18T00:45:11;45.58;42.55;48.75;;
69616;Laerm;56822;52.516;4.708;2022-12-18T00:45:30;47.39;44.06;50.79;;
69616;Laerm;56822;52.516;4.708;2022-12-18T00:45:41;45.39;40.81;50.26;;
69616;Laerm;56822;52.516;4.708;2022-12-18T00:45:51;45.54;41.58;49.98;;
69616;Laerm;56822;52.516;4.708;2022-12-18T00:46:02;42.78;39.50;46.91;;
69616;Laerm;56822;52.516;4.708;2022-12-18T00:46:12;43.85;39.97;48.11;;
69616;Laerm;56822;52.516;4.708;2022-12-18T00:46:22;43.66;38.98;53.24;;
69616;Laerm;56822;52.516;4.708;2022-12-18T00:46:33;41.89;39.22;44.98;;
69616;Laerm;56822;52.516;4.708;2022-12-18T00:46:43;42.50;38.56;47.58;;
69616;Laerm;56822;52.516;4.708;2022-12-18T00:46:54;45.35;41.06;49.43;;
69616;Laerm;56822;52.516;4.708;2022-12-18T00:47:04;42.94;39.36;47.33;;
69616;Laerm;56822;52.516;4.708;2022-12-18T00:47:14;45.07;39.57;58.15;;
69616;Laerm;56822;52.516;4.708;2022-12-18T00:47:25;47.95;43.78;52.95;;
69616;Laerm;56822;52.516;4.708;2022-12-18T00:47:35;47.79;44.57;56.31;;
69616;Laerm;56822;52.516;4.708;2022-12-18T00:47:45;47.02;41.65;53.68;;
69616;Laerm;56822;52.516;4.708;2022-12-18T00:47:56;45.62;43.11;50.42;;
69616;Laerm;56822;52.516;4.708;2022-12-18T00:48:07;46.92;43.06;52.21;;
69616;Laerm;56822;52.516;4.708;2022-12-18T00:48:17;48.58;44.74;53.89;;
69616;Laerm;56822;52.516;4.708;2022-12-18T00:48:28;46.40;43.78;51.25;;
69616;Laerm;56822;52.516;4.708;2022-12-18T00:48:38;46.46;43.10;53.37;;
69616;Laerm;56822;52.516;4.708;2022-12-18T00:48:48;44.54;41.36;47.57;;
69616;Laerm;56822;52.516;4.708;2022-12-18T00:48:59;43.62;40.61;48.55;;
69616;Laerm;56822;52.516;4.708;2022-12-18T00:49:09;46.11;41.75;50.78;;
69616;Laerm;56822;52.516;4.708;2022-12-18T00:49:20;46.58;43.35;51.30;;
69616;Laerm;56822;52.516;4.708;2022-12-18T00:49:30;45.02;42.19;49.15;;
69616;Laerm;56822;52.516;4.708;2022-12-18T00:49:40;44.05;40.46;47.32;;
69616;Laerm;56822;52.516;4.708;2022-12-18T00:49:51;43.20;40.10;46.47;;
69616;Laerm;56822;52.516;4.708;2022-12-18T00:50:01;45.22;40.30;54.40;;
69616;Laerm;56822;52.516;4.708;2022-12-18T00:50:12;45.06;42.13;50.80;;
69616;Laerm;56822;52.516;4.708;2022-12-18T00:50:23;43.92;41.08;47.99;;
69616;Laerm;56822;52.516;4.708;2022-12-18T00:50:34;43.21;39.75;48.02;;
69616;Laerm;56822;52.516;4.708;2022-12-18T00:50:44;46.20;41.86;50.77;;
69616;Laerm;56822;52.516;4.708;2022-12-18T00:50:55;44.80;41.72;51.22;;
69616;Laerm;56822;52.516;4.708;2022-12-18T00:51:05;41.99;39.18;45.34;;
69616;Laerm;56822;52.516;4.708;2022-12-18T00:51:16;46.21;39.93;50.71;;
69616;Laerm;56822;52.516;4.708;2022-12-18T00:51:27;42.61;39.32;48.94;;
69616;Laerm;56822;52.516;4.708;2022-12-18T00:51:37;43.55;41.09;47.78;;
69616;Laerm;56822;52.516;4.708;2022-12-18T00:51:47;46.09;42.70;49.67;;
69616;Laerm;56822;52.516;4.708;2022-12-18T00:51:57;44.69;40.83;48.53;;
69616;Laerm;56822;52.516;4.708;2022-12-18T00:52:08;44.44;39.96;47.84;;
69616;Laerm;56822;52.516;4.708;2022-12-18T00:52:18;45.62;40.93;50.01;;
69616;Laerm;56822;52.516;4.708;2022-12-18T00:52:28;48.89;45.15;55.52;;
69616;Laerm;56822;52.516;4.708;2022-12-18T00:52:39;45.84;42.44;50.83;;
69616;Laerm;56822;52.516;4.708;2022-12-18T00:52:49;45.11;40.96;51.46;;
69616;Laerm;56822;52.516;4.708;2022-12-18T00:52:59;44.17;41.54;48.62;;
69616;Laerm;56822;52.516;4.708;2022-12-18T00:53:10;42.59;39.81;47.80;;
69616;Laerm;56822;52.516;4.708;2022-12-18T00:53:20;43.38;40.07;54.34;;
69616;Laerm;56822;52.516;4.708;2022-12-18T00:53:31;44.23;40.35;49.59;;
69616;Laerm;56822;52.516;4.708;2022-12-18T00:53:41;43.98;40.38;48.78;;
69616;Laerm;56822;52.516;4.708;2022-12-18T00:53:51;41.46;38.03;44.99;;
69616;Laerm;56822;52.516;4.708;2022-12-18T00:54:02;41.75;38.01;46.90;;
69616;Laerm;56822;52.516;4.708;2022-12-18T00:54:12;41.60;37.21;45.22;;
69616;Laerm;56822;52.516;4.708;2022-12-18T00:54:23;43.26;38.48;47.25;;
69616;Laerm;56822;52.516;4.708;2022-12-18T00:54:33;42.52;38.19;46.23;;
69616;Laerm;56822;52.516;4.708;2022-12-18T00:54:43;42.70;39.59;47.14;;
69616;Laerm;56822;52.516;4.708;2022-12-18T00:54:54;44.53;40.33;52.62;;
69616;Laerm;56822;52.516;4.708;2022-12-18T00:55:04;42.89;39.06;50.47;;
69616;Laerm;56822;52.516;4.708;2022-12-18T00:55:15;44.92;40.33;48.42;;
69616;Laerm;56822;52.516;4.708;2022-12-18T00:55:25;42.10;39.13;45.50;;
69616;Laerm;56822;52.516;4.708;2022-12-18T00:55:37;43.60;40.11;49.44;;
69616;Laerm;56822;52.516;4.708;2022-12-18T00:55:47;43.68;39.99;47.01;;
69616;Laerm;56822;52.516;4.708;2022-12-18T00:55:58;43.66;39.96;47.96;;
69616;Laerm;56822;52.516;4.708;2022-12-18T00:56:08;44.61;41.59;48.71;;
69616;Laerm;56822;52.516;4.708;2022-12-18T00:56:18;43.13;39.53;45.93;;
69616;Laerm;56822;52.516;4.708;2022-12-18T00:56:29;41.04;38.13;46.53;;
69616;Laerm;56822;52.516;4.708;2022-12-18T00:56:39;42.87;39.12;47.54;;
69616;Laerm;56822;52.516;4.708;2022-12-18T00:56:49;41.07;38.27;46.84;;
69616;Laerm;56822;52.516;4.708;2022-12-18T00:57:00;41.43;38.62;47.71;;
69616;Laerm;56822;52.516;4.708;2022-12-18T00:57:10;41.20;38.19;45.68;;
69616;Laerm;56822;52.516;4.708;2022-12-18T00:57:20;44.80;40.40;50.95;;
69616;Laerm;56822;52.516;4.708;2022-12-18T00:57:31;47.67;42.63;53.72;;
69616;Laerm;56822;52.516;4.708;2022-12-18T00:57:41;47.69;42.92;53.55;;
69616;Laerm;56822;52.516;4.708;2022-12-18T00:57:51;45.38;41.06;49.11;;
69616;Laerm;56822;52.516;4.708;2022-12-18T00:58:02;45.02;40.95;51.79;;
69616;Laerm;56822;52.516;4.708;2022-12-18T00:58:13;42.55;38.89;46.86;;
69616;Laerm;56822;52.516;4.708;2022-12-18T00:58:24;42.66;37.99;47.39;;
69616;Laerm;56822;52.516;4.708;2022-12-18T00:58:34;46.20;41.36;51.62;;
69616;Laerm;56822;52.516;4.708;2022-12-18T00:58:44;46.36;43.02;51.67;;
69616;Laerm;56822;52.516;4.708;2022-12-18T00:58:55;45.99;41.67;53.24;;
69616;Laerm;56822;52.516;4.708;2022-12-18T00:59:05;43.94;39.92;47.87;;
69616;Laerm;56822;52.516;4.708;2022-12-18T00:59:16;43.50;40.36;46.86;;
69616;Laerm;56822;52.516;4.708;2022-12-18T00:59:26;44.47;39.78;48.31;;
69616;Laerm;56822;52.516;4.708;2022-12-18T00:59:40;42.33;39.40;45.70;;
69616;Laerm;56822;52.516;4.708;2022-12-18T00:59:50;40.03;37.47;44.43;;
69616;Laerm;56822;52.516;4.708;2022-12-18T01:00:00;43.58;39.78;46.96;;
69616;Laerm;56822;52.516;4.708;2022-12-18T01:00:12;44.80;40.42;49.13;;
69616;Laerm;56822;52.516;4.708;2022-12-18T01:00:22;41.95;38.52;45.63;;
69616;Laerm;56822;52.516;4.708;2022-12-18T01:00:33;42.49;39.05;46.50;;
69616;Laerm;56822;52.516;4.708;2022-12-18T01:00:43;44.94;42.08;48.15;;
69616;Laerm;56822;52.516;4.708;2022-12-18T01:00:53;45.81;42.85;51.12;;
69616;Laerm;56822;52.516;4.708;2022-12-18T01:01:04;40.81;37.93;45.23;;
69616;Laerm;56822;52.516;4.708;2022-12-18T01:01:15;42.81;38.66;48.25;;